createdAt,value
2023-04-18T00:01:23.913Z,7.80
2023-04-18T00:03:50.865Z,7.80
2023-04-18T00:06:17.736Z,7.80
2023-04-18T00:08:44.353Z,7.90
2023-04-18T00:11:11.129Z,7.90
2023-04-18T00:13:39.360Z,7.90
2023-04-18T00:16:07.708Z,8.00
2023-04-18T00:18:34.503Z,8.00
2023-04-18T00:21:03.093Z,8.10
2023-04-18T00:23:30.243Z,8.10
2023-04-18T00:25:57.248Z,8.10
2023-04-18T00:28:23.936Z,8.20
2023-04-18T00:30:50.680Z,8.20
2023-04-18T00:33:17.719Z,8.30
2023-04-18T00:35:44.564Z,8.20
2023-04-18T00:38:11.198Z,8.10
2023-04-18T00:40:38.835Z,8.10
2023-04-18T00:43:07.956Z,8.10
2023-04-18T00:45:34.952Z,8.00
2023-04-18T00:48:02.075Z,7.90
2023-04-18T00:50:28.850Z,7.90
2023-04-18T00:52:55.768Z,7.80
2023-04-18T00:55:23.821Z,7.80
2023-04-18T00:57:51.030Z,7.80
2023-04-18T01:00:17.984Z,7.70
2023-04-18T01:02:44.836Z,7.70
2023-04-18T01:05:11.908Z,7.70
2023-04-18T01:07:41.493Z,7.60
2023-04-18T01:10:10.233Z,7.60
2023-04-18T01:12:37.672Z,7.50
2023-04-18T01:15:07.686Z,7.40
2023-04-18T01:17:35.455Z,7.30
2023-04-18T01:20:04.892Z,7.30
2023-04-18T01:22:32.296Z,7.30
2023-04-18T01:24:58.950Z,7.20
2023-04-18T01:27:25.569Z,7.20
2023-04-18T01:29:52.140Z,7.10
2023-04-18T01:32:20.368Z,7.10
2023-04-18T01:34:47.295Z,7.00
2023-04-18T01:37:13.973Z,6.90
2023-04-18T01:39:40.611Z,6.80
2023-04-18T01:42:07.209Z,6.80
2023-04-18T01:44:33.854Z,6.80
2023-04-18T01:47:00.539Z,6.70
2023-04-18T01:49:27.168Z,6.70
2023-04-18T01:51:53.775Z,6.70
2023-04-18T01:54:20.466Z,6.70
2023-04-18T01:56:47.220Z,6.70
2023-04-18T01:59:13.786Z,6.60
2023-04-18T02:01:40.700Z,6.60
2023-04-18T02:04:07.368Z,6.60
2023-04-18T02:06:34.035Z,6.60
2023-04-18T02:09:00.734Z,6.60
2023-04-18T02:11:27.325Z,6.50
2023-04-18T02:13:53.951Z,6.50
2023-04-18T02:16:20.703Z,6.50
2023-04-18T02:18:47.408Z,6.50
2023-04-18T02:21:13.965Z,6.50
2023-04-18T02:23:40.735Z,6.40
2023-04-18T02:26:07.406Z,6.40
2023-04-18T02:28:34.201Z,6.40
2023-04-18T02:31:01.118Z,6.30
2023-04-18T02:33:27.841Z,6.40
2023-04-18T02:35:54.433Z,6.30
2023-04-18T02:38:21.073Z,6.30
2023-04-18T02:40:47.675Z,6.30
2023-04-18T02:43:14.289Z,6.30
2023-04-18T02:45:41.586Z,6.30
2023-04-18T02:48:08.369Z,6.40
2023-04-18T02:50:35.479Z,6.40
2023-04-18T02:53:02.155Z,6.50
2023-04-18T02:55:28.896Z,6.50
2023-04-18T02:57:56.342Z,6.70
2023-04-18T03:00:23.043Z,6.70
2023-04-18T03:02:49.738Z,6.80
2023-04-18T03:05:16.726Z,6.80
2023-04-18T03:07:43.373Z,6.90
2023-04-18T03:10:10.396Z,6.90
2023-04-18T03:12:37.070Z,7.00
2023-04-18T03:15:03.934Z,7.10
2023-04-18T03:17:31.038Z,7.10
2023-04-18T03:19:57.663Z,7.20
2023-04-18T03:22:24.281Z,7.20
2023-04-18T03:24:50.981Z,7.30
2023-04-18T03:27:17.680Z,7.30
2023-04-18T03:29:44.287Z,7.40
2023-04-18T03:32:11.383Z,7.50
2023-04-18T03:34:37.981Z,7.50
2023-04-18T03:37:04.564Z,7.50
2023-04-18T03:39:31.163Z,7.50
2023-04-18T03:41:57.777Z,7.60
2023-04-18T03:44:24.406Z,7.60
2023-04-18T03:46:51.054Z,7.60
2023-04-18T03:49:17.646Z,7.70
2023-04-18T03:51:47.827Z,7.70
2023-04-18T03:54:16.245Z,7.80
2023-04-18T03:56:43.372Z,7.80
2023-04-18T03:59:10.852Z,7.80
2023-04-18T04:01:37.830Z,7.90
2023-04-18T04:04:04.956Z,7.90
2023-04-18T04:06:32.584Z,8.00
2023-04-18T04:08:59.182Z,8.00
2023-04-18T04:11:26.036Z,8.00
2023-04-18T04:13:53.236Z,8.10
2023-04-18T04:16:19.883Z,8.10
2023-04-18T04:18:46.553Z,8.10
2023-04-18T04:21:13.211Z,8.20
2023-04-18T04:23:42.637Z,8.20
2023-04-18T04:26:09.524Z,8.30
2023-04-18T04:28:36.137Z,8.20
2023-04-18T04:31:03.458Z,8.30
2023-04-18T04:33:33.180Z,8.30
2023-04-18T04:36:01.142Z,8.40
2023-04-18T04:38:30.667Z,8.40
2023-04-18T04:40:58.202Z,8.50
2023-04-18T04:43:25.981Z,8.50
2023-04-18T04:45:53.060Z,8.50
2023-04-18T04:48:21.907Z,8.60
2023-04-18T04:50:53.557Z,8.60
2023-04-18T04:53:20.357Z,8.60
2023-04-18T04:55:47.420Z,8.60
2023-04-18T04:58:14.039Z,8.60
2023-04-18T05:00:40.872Z,8.60
2023-04-18T05:03:08.228Z,8.60
2023-04-18T05:05:35.069Z,8.60
2023-04-18T05:08:01.998Z,8.60
2023-04-18T05:10:28.661Z,8.60
2023-04-18T05:12:55.244Z,8.70
2023-04-18T05:15:22.964Z,8.70
2023-04-18T05:17:49.643Z,8.80
2023-04-18T05:20:16.343Z,8.80
2023-04-18T05:22:42.950Z,8.80
2023-04-18T05:25:10.293Z,8.80
2023-04-18T05:27:36.906Z,8.90
2023-04-18T05:30:03.701Z,8.90
2023-04-18T05:32:30.380Z,8.90
2023-04-18T05:34:57.065Z,9.00
2023-04-18T05:37:23.721Z,9.00
2023-04-18T05:39:50.407Z,9.10
2023-04-18T05:42:17.147Z,9.10
2023-04-18T05:44:43.744Z,9.10
2023-04-18T05:47:10.390Z,9.10
2023-04-18T05:49:36.979Z,9.10
2023-04-18T05:52:03.756Z,9.10
2023-04-18T05:54:30.531Z,9.20
2023-04-18T05:56:57.294Z,9.20
2023-04-18T05:59:24.487Z,9.20
2023-04-18T06:01:51.408Z,9.30
2023-04-18T06:04:20.188Z,9.30
2023-04-18T06:06:47.319Z,9.40
2023-04-18T06:09:13.917Z,9.40
2023-04-18T06:11:40.566Z,9.40
2023-04-18T06:14:08.117Z,9.50
2023-04-18T06:16:36.576Z,9.60
2023-04-18T06:19:03.990Z,9.70
2023-04-18T06:21:30.873Z,9.70
2023-04-18T06:23:57.510Z,9.80
2023-04-18T06:26:24.510Z,9.90
2023-04-18T06:28:51.084Z,10.00
2023-04-18T06:31:17.916Z,10.10
2023-04-18T06:33:44.550Z,10.10
2023-04-18T06:36:11.192Z,10.20
2023-04-18T06:38:37.775Z,10.30
2023-04-18T06:41:04.597Z,10.30
2023-04-18T06:43:31.282Z,10.40
2023-04-18T06:45:59.519Z,10.50
2023-04-18T06:48:26.287Z,10.50
2023-04-18T06:50:52.933Z,10.60
2023-04-18T06:53:19.687Z,10.60
2023-04-18T06:55:46.340Z,10.70
2023-04-18T06:58:15.971Z,10.80
2023-04-18T07:00:43.301Z,10.80
2023-04-18T07:03:13.418Z,10.90
2023-04-18T07:05:40.506Z,10.90
2023-04-18T07:08:07.551Z,11.00
2023-04-18T07:10:34.200Z,11.20
2023-04-18T07:13:00.819Z,11.30
2023-04-18T07:15:27.423Z,11.30
2023-04-18T07:17:54.202Z,11.40
2023-04-18T07:20:20.874Z,11.50
2023-04-18T07:22:48.060Z,11.50
2023-04-18T07:25:14.819Z,11.70
2023-04-18T07:27:41.634Z,11.80
2023-04-18T07:30:08.931Z,12.00
2023-04-18T07:32:35.744Z,12.20
2023-04-18T07:35:03.288Z,12.30
2023-04-18T07:37:30.283Z,12.60
2023-04-18T07:39:56.923Z,12.80
2023-04-18T07:42:23.550Z,13.00
2023-04-18T07:44:50.356Z,13.10
2023-04-18T07:47:22.180Z,13.30
2023-04-18T07:49:49.177Z,13.40
2023-04-18T07:52:15.795Z,13.60
2023-04-18T07:54:42.367Z,13.70
2023-04-18T07:57:09.074Z,13.70
2023-04-18T07:59:35.946Z,13.70
2023-04-18T08:02:02.969Z,13.70
2023-04-18T08:04:30.611Z,13.80
2023-04-18T08:06:57.452Z,13.80
2023-04-18T08:09:25.260Z,13.80
2023-04-18T08:11:51.876Z,13.80
2023-04-18T08:14:18.541Z,13.60
2023-04-18T08:16:45.462Z,13.50
2023-04-18T08:19:12.392Z,13.40
2023-04-18T08:21:39.305Z,13.40
2023-04-18T08:24:06.228Z,13.30
2023-04-18T08:26:32.855Z,13.30
2023-04-18T08:28:59.491Z,13.20
2023-04-18T08:31:26.425Z,13.20
2023-04-18T08:33:53.154Z,13.20
2023-04-18T08:36:20.378Z,13.10
2023-04-18T08:38:47.548Z,13.20
2023-04-18T08:41:20.094Z,13.40
2023-04-18T08:43:49.706Z,13.70
2023-04-18T08:46:17.411Z,13.90
2023-04-18T08:48:44.562Z,14.10
2023-04-18T08:51:11.390Z,14.30
2023-04-18T08:53:39.219Z,14.40
2023-04-18T08:56:06.327Z,14.60
2023-04-18T08:58:34.181Z,14.50
2023-04-18T09:01:01.105Z,14.40
2023-04-18T09:03:42.514Z,14.50
2023-04-18T09:06:12.469Z,14.80
2023-04-18T09:08:43.689Z,14.80
2023-04-18T09:11:25.804Z,15.10
2023-04-18T09:13:53.157Z,15.40
2023-04-18T09:16:22.331Z,15.70
2023-04-18T09:19:21.555Z,16.00
2023-04-18T09:22:00.896Z,16.20
2023-04-18T09:24:28.675Z,16.40
2023-04-18T09:26:57.144Z,16.70
2023-04-18T09:29:41.233Z,16.70
2023-04-18T09:32:07.879Z,16.60
2023-04-18T09:34:38.277Z,16.40
2023-04-18T09:37:10.524Z,16.30
2023-04-18T09:39:38.937Z,16.30
2023-04-18T09:42:06.275Z,16.30
2023-04-18T09:44:32.924Z,16.30
2023-04-18T09:47:00.361Z,16.50
2023-04-18T09:49:27.327Z,16.50
2023-04-18T09:51:55.465Z,16.50
2023-04-18T09:54:25.813Z,16.30
2023-04-18T09:56:54.224Z,16.30
2023-04-18T09:59:32.586Z,16.20
2023-04-18T10:01:59.638Z,16.20
2023-04-18T10:04:27.722Z,16.20
2023-04-18T10:06:54.563Z,16.30
2023-04-18T10:09:22.242Z,16.20
2023-04-18T10:11:48.976Z,16.10
2023-04-18T10:14:16.758Z,16.00
2023-04-18T10:16:45.569Z,16.00
2023-04-18T10:19:26.548Z,16.20
2023-04-18T10:21:58.214Z,16.30
2023-04-18T10:24:53.285Z,16.30
2023-04-18T10:28:01.189Z,16.20
2023-04-18T10:30:43.651Z,16.20
2023-04-18T10:33:31.048Z,16.10
2023-04-18T10:36:09.525Z,16.10
2023-04-18T10:38:45.090Z,16.00
2023-04-18T10:41:19.524Z,16.10
2023-04-18T10:44:18.388Z,16.20
2023-04-18T10:46:51.125Z,16.20
2023-04-18T10:49:19.049Z,16.00
2023-04-18T10:51:58.691Z,15.90
2023-04-18T10:54:54.303Z,15.90
2023-04-18T10:57:21.953Z,15.90
2023-04-18T10:59:50.925Z,15.90
2023-04-18T11:02:30.038Z,16.20
2023-04-18T11:05:04.673Z,16.70
2023-04-18T11:07:39.392Z,16.80
2023-04-18T11:10:07.689Z,17.00
2023-04-18T11:12:36.394Z,16.90
2023-04-18T11:15:10.723Z,16.80
2023-04-18T11:17:39.995Z,16.70
2023-04-18T11:20:15.589Z,16.60
2023-04-18T11:22:49.793Z,16.60
2023-04-18T11:25:17.800Z,16.50
2023-04-18T11:27:46.148Z,16.50
2023-04-18T11:30:14.458Z,16.50
2023-04-18T11:32:41.467Z,16.50
2023-04-18T11:35:12.666Z,16.50
2023-04-18T11:37:40.818Z,16.40
2023-04-18T11:40:10.967Z,16.40
2023-04-18T11:42:39.120Z,16.40
2023-04-18T11:45:13.766Z,16.40
2023-04-18T11:47:44.650Z,16.50
2023-04-18T11:50:12.975Z,16.70
2023-04-18T11:52:41.886Z,16.90
2023-04-18T11:55:21.156Z,17.10
2023-04-18T11:57:55.627Z,17.10
2023-04-18T12:00:39.448Z,17.20
2023-04-18T12:03:17.042Z,17.20
2023-04-18T12:05:44.425Z,17.10
2023-04-18T12:08:19.049Z,17.10
2023-04-18T12:10:50.742Z,17.10
2023-04-18T12:13:18.167Z,16.90
2023-04-18T12:15:46.256Z,16.80
2023-04-18T12:18:15.125Z,16.70
2023-04-18T12:20:50.163Z,16.80
2023-04-18T12:23:34.283Z,16.90
2023-04-18T12:26:06.122Z,16.90
2023-04-18T12:28:34.186Z,17.20
2023-04-18T12:31:01.505Z,17.40
2023-04-18T12:33:28.218Z,17.60
2023-04-18T12:35:54.830Z,17.80
2023-04-18T12:38:22.548Z,18.00
2023-04-18T12:40:50.115Z,18.20
2023-04-18T12:43:17.360Z,18.20
2023-04-18T12:45:45.396Z,18.20
2023-04-18T12:48:12.559Z,18.30
2023-04-18T12:50:39.201Z,18.30
2023-04-18T12:53:06.095Z,18.20
2023-04-18T12:55:33.050Z,18.10
2023-04-18T12:57:59.765Z,18.00
2023-04-18T13:00:29.198Z,17.90
2023-04-18T13:02:56.351Z,17.80
2023-04-18T13:05:26.178Z,17.80
2023-04-18T13:07:58.727Z,17.70
2023-04-18T13:10:32.020Z,17.50
2023-04-18T13:12:58.676Z,17.30
2023-04-18T13:15:27.173Z,17.30
2023-04-18T13:17:55.845Z,17.30
2023-04-18T13:20:22.676Z,17.30
2023-04-18T13:22:49.309Z,17.50
2023-04-18T13:25:16.468Z,17.70
2023-04-18T13:27:43.107Z,18.10
2023-04-18T13:30:11.014Z,18.30
2023-04-18T13:32:39.425Z,18.60
2023-04-18T13:35:08.762Z,18.60
2023-04-18T13:37:35.593Z,18.60
2023-04-18T13:40:05.474Z,18.40
2023-04-18T13:42:37.051Z,18.30
2023-04-18T13:45:04.138Z,18.20
2023-04-18T13:47:30.872Z,18.20
2023-04-18T13:49:57.861Z,18.20
2023-04-18T13:52:24.679Z,18.20
2023-04-18T13:54:51.322Z,18.30
2023-04-18T13:57:17.965Z,18.20
2023-04-18T13:59:44.649Z,18.00
2023-04-18T14:02:11.501Z,18.00
2023-04-18T14:04:38.467Z,17.90
2023-04-18T14:07:06.401Z,17.90
2023-04-18T14:09:33.513Z,17.90
2023-04-18T14:12:00.176Z,18.00
2023-04-18T14:14:26.833Z,18.00
2023-04-18T14:16:54.015Z,18.00
2023-04-18T14:19:20.682Z,18.00
2023-04-18T14:21:48.138Z,17.90
2023-04-18T14:24:14.908Z,18.00
2023-04-18T14:26:41.930Z,17.90
2023-04-18T14:29:08.534Z,17.80
2023-04-18T14:31:35.355Z,17.80
2023-04-18T14:34:02.011Z,17.80
2023-04-18T14:36:28.722Z,17.70
2023-04-18T14:38:55.386Z,17.80
2023-04-18T14:41:22.174Z,17.90
2023-04-18T14:43:48.882Z,17.80
2023-04-18T14:46:18.435Z,17.70
2023-04-18T14:48:46.675Z,17.40
2023-04-18T14:51:14.412Z,17.40
2023-04-18T14:53:41.041Z,17.30
2023-04-18T14:56:08.420Z,17.10
2023-04-18T14:58:35.004Z,16.90
2023-04-18T15:01:01.613Z,16.80
2023-04-18T15:03:28.618Z,16.70
2023-04-18T15:05:56.293Z,16.70
2023-04-18T15:08:22.975Z,16.60
2023-04-18T15:10:49.673Z,16.50
2023-04-18T15:13:16.538Z,16.50
2023-04-18T15:15:43.152Z,16.50
2023-04-18T15:18:10.910Z,16.50
2023-04-18T15:20:39.784Z,16.40
2023-04-18T15:23:06.900Z,16.20
2023-04-18T15:25:35.037Z,16.20
2023-04-18T15:28:01.652Z,16.10
2023-04-18T15:30:28.279Z,15.90
2023-04-18T15:32:55.681Z,15.80
2023-04-18T15:35:22.587Z,15.70
2023-04-18T15:37:49.255Z,15.70
2023-04-18T15:40:16.462Z,15.50
2023-04-18T15:42:44.863Z,15.50
2023-04-18T15:45:11.902Z,15.50
2023-04-18T15:47:38.796Z,15.50
2023-04-18T15:50:06.902Z,15.40
2023-04-18T15:52:33.764Z,15.20
2023-04-18T15:55:00.749Z,15.10
2023-04-18T15:57:29.603Z,15.00
2023-04-18T15:59:56.650Z,15.00
2023-04-18T16:02:23.336Z,15.00
2023-04-18T16:04:50.060Z,14.90
2023-04-18T16:07:16.900Z,14.90
2023-04-18T16:09:43.503Z,14.90
2023-04-18T16:12:10.184Z,14.90
2023-04-18T16:14:36.764Z,14.80
2023-04-18T16:17:03.734Z,14.80
2023-04-18T16:19:30.640Z,14.80
2023-04-18T16:21:57.613Z,14.70
2023-04-18T16:24:25.564Z,14.70
2023-04-18T16:26:53.474Z,14.70
2023-04-18T16:29:20.338Z,14.60
2023-04-18T16:31:47.614Z,14.50
2023-04-18T16:34:15.651Z,14.50
2023-04-18T16:36:42.489Z,14.40
2023-04-18T16:39:09.097Z,14.50
2023-04-18T16:41:36.130Z,14.40
2023-04-18T16:44:02.761Z,14.40
2023-04-18T16:46:32.096Z,14.30
2023-04-18T16:48:59.323Z,14.20
2023-04-18T16:51:26.865Z,14.30
2023-04-18T16:53:53.449Z,14.20
2023-04-18T16:56:20.218Z,14.20
2023-04-18T16:58:46.830Z,14.10
2023-04-18T17:01:13.524Z,14.10
2023-04-18T17:03:40.273Z,14.10
2023-04-18T17:06:07.131Z,14.00
2023-04-18T17:08:34.102Z,14.00
2023-04-18T17:11:02.189Z,13.90
2023-04-18T17:13:31.291Z,13.90
2023-04-18T17:15:58.573Z,13.80
2023-04-18T17:18:25.281Z,13.80
2023-04-18T17:20:52.213Z,13.80
2023-04-18T17:23:18.917Z,13.70
2023-04-18T17:25:46.160Z,13.70
2023-04-18T17:28:13.838Z,13.70
2023-04-18T17:30:44.312Z,13.70
2023-04-18T17:33:10.997Z,13.70
2023-04-18T17:35:40.853Z,13.70
2023-04-18T17:38:08.025Z,13.60
2023-04-18T17:40:35.225Z,13.60
2023-04-18T17:43:01.804Z,13.60
2023-04-18T17:45:28.846Z,13.60
2023-04-18T17:47:57.486Z,13.50
2023-04-18T17:50:24.216Z,13.40
2023-04-18T17:52:50.805Z,13.40
2023-04-18T17:55:17.816Z,13.30
2023-04-18T17:57:44.539Z,13.30
2023-04-18T18:00:13.743Z,13.20
2023-04-18T18:02:42.321Z,13.10
2023-04-18T18:05:14.905Z,13.20
2023-04-18T18:07:45.789Z,13.20
2023-04-18T18:10:14.886Z,13.10
2023-04-18T18:12:42.311Z,13.10
2023-04-18T18:15:09.385Z,13.10
2023-04-18T18:17:35.996Z,13.10
2023-04-18T18:20:02.648Z,13.00
2023-04-18T18:22:29.315Z,13.00
2023-04-18T18:24:56.435Z,13.00
2023-04-18T18:27:23.044Z,12.90
2023-04-18T18:29:50.343Z,12.90
2023-04-18T18:32:16.968Z,12.90
2023-04-18T18:34:43.640Z,12.90
2023-04-18T18:37:10.339Z,12.90
2023-04-18T18:39:37.286Z,12.90
2023-04-18T18:42:04.012Z,12.80
2023-04-18T18:44:30.685Z,12.80
2023-04-18T18:46:58.720Z,12.80
2023-04-18T18:49:26.531Z,12.80
2023-04-18T18:51:53.482Z,12.70
2023-04-18T18:54:20.234Z,12.80
2023-04-18T18:56:46.951Z,12.80
2023-04-18T18:59:13.724Z,12.80
2023-04-18T19:01:41.096Z,12.80
2023-04-18T19:04:08.018Z,12.80
2023-04-18T19:06:35.182Z,12.80
2023-04-18T19:09:01.782Z,12.70
2023-04-18T19:11:29.170Z,12.60
2023-04-18T19:13:55.811Z,12.60
2023-04-18T19:16:22.546Z,12.60
2023-04-18T19:18:50.491Z,12.50
2023-04-18T19:21:17.339Z,12.50
2023-04-18T19:23:43.983Z,12.50
2023-04-18T19:26:10.695Z,12.50
2023-04-18T19:28:37.428Z,12.50
2023-04-18T19:31:04.298Z,12.50
2023-04-18T19:33:31.021Z,12.50
2023-04-18T19:35:57.997Z,12.50
2023-04-18T19:38:24.616Z,12.50
2023-04-18T19:40:51.270Z,12.50
2023-04-18T19:43:17.915Z,12.50
2023-04-18T19:45:44.872Z,12.50
2023-04-18T19:48:11.940Z,12.50
2023-04-18T19:50:42.374Z,12.50
2023-04-18T19:53:09.031Z,12.50
2023-04-18T19:55:35.870Z,12.50
2023-04-18T19:58:02.492Z,12.50
2023-04-18T20:00:29.348Z,12.40
2023-04-18T20:02:58.340Z,12.40
2023-04-18T20:05:25.232Z,12.30
2023-04-18T20:07:51.947Z,12.30
2023-04-18T20:10:23.004Z,12.30
2023-04-18T20:12:50.204Z,12.30
2023-04-18T20:15:17.005Z,12.20
2023-04-18T20:17:43.655Z,12.20
2023-04-18T20:20:11.160Z,12.10
2023-04-18T20:22:40.078Z,12.10
2023-04-18T20:25:07.024Z,12.10
2023-04-18T20:27:33.648Z,12.10
2023-04-18T20:30:00.350Z,12.00
2023-04-18T20:32:27.111Z,12.00
2023-04-18T20:34:53.819Z,12.00
2023-04-18T20:37:20.633Z,12.00
2023-04-18T20:39:47.503Z,12.00
2023-04-18T20:42:14.228Z,12.00
2023-04-18T20:44:43.083Z,12.00
2023-04-18T20:47:09.697Z,12.00
2023-04-18T20:49:36.388Z,11.90
2023-04-18T20:52:03.072Z,12.00
2023-04-18T20:54:29.744Z,11.90
2023-04-18T20:56:56.528Z,11.90
2023-04-18T20:59:23.105Z,11.80
2023-04-18T21:01:49.815Z,11.80
2023-04-18T21:04:16.789Z,11.80
2023-04-18T21:06:43.804Z,11.80
2023-04-18T21:09:10.392Z,11.80
2023-04-18T21:11:37.017Z,11.80
2023-04-18T21:14:06.473Z,11.80
2023-04-18T21:16:33.277Z,11.80
2023-04-18T21:19:00.120Z,11.80
2023-04-18T21:21:27.162Z,11.70
2023-04-18T21:23:53.778Z,11.80
2023-04-18T21:26:20.946Z,11.70
2023-04-18T21:28:56.069Z,11.70
2023-04-18T21:31:23.160Z,11.70
2023-04-18T21:33:54.460Z,11.70
2023-04-18T21:36:21.394Z,11.70
2023-04-18T21:38:48.039Z,11.70
2023-04-18T21:41:16.774Z,11.60
2023-04-18T21:43:43.878Z,11.70
2023-04-18T21:46:14.044Z,11.60
2023-04-18T21:48:41.925Z,11.60
2023-04-18T21:51:10.753Z,11.60
2023-04-18T21:53:38.718Z,11.60
2023-04-18T21:56:06.171Z,11.60
2023-04-18T21:58:33.089Z,11.60
2023-04-18T22:00:59.982Z,11.60
2023-04-18T22:03:28.612Z,11.50
2023-04-18T22:05:58.485Z,11.50
2023-04-18T22:08:26.212Z,11.60
2023-04-18T22:10:54.973Z,11.60
2023-04-18T22:13:25.504Z,11.60
2023-04-18T22:15:52.101Z,11.50
2023-04-18T22:18:19.258Z,11.60
2023-04-18T22:20:46.865Z,11.60
2023-04-18T22:23:14.091Z,11.60
2023-04-18T22:25:41.064Z,11.60
2023-04-18T22:28:08.054Z,11.50
2023-04-18T22:30:34.802Z,11.50
2023-04-18T22:33:01.678Z,11.50
2023-04-18T22:35:28.436Z,11.50
2023-04-18T22:37:55.877Z,11.50
2023-04-18T22:40:22.674Z,11.50
2023-04-18T22:42:51.750Z,11.50
2023-04-18T22:45:19.384Z,11.50
2023-04-18T22:47:46.653Z,11.50
2023-04-18T22:50:14.569Z,11.50
2023-04-18T22:52:41.427Z,11.50
2023-04-18T22:55:08.808Z,11.50
2023-04-18T22:57:35.463Z,11.50
2023-04-18T23:00:02.392Z,11.50
2023-04-18T23:02:29.181Z,11.40
2023-04-18T23:04:58.232Z,11.40
2023-04-18T23:07:24.949Z,11.40
2023-04-18T23:09:51.538Z,11.40
2023-04-18T23:12:18.120Z,11.40
2023-04-18T23:14:44.722Z,11.40
2023-04-18T23:17:11.321Z,11.40
2023-04-18T23:19:38.849Z,11.40
2023-04-18T23:22:05.621Z,11.40
2023-04-18T23:24:32.244Z,11.40
2023-04-18T23:26:58.876Z,11.40
2023-04-18T23:29:25.539Z,11.40
2023-04-18T23:31:52.272Z,11.40
2023-04-18T23:34:18.846Z,11.40
2023-04-18T23:36:45.677Z,11.40
2023-04-18T23:39:12.373Z,11.40
2023-04-18T23:41:38.950Z,11.40
2023-04-18T23:44:05.701Z,11.40
2023-04-18T23:46:33.399Z,11.40
2023-04-18T23:49:01.700Z,11.50
2023-04-18T23:51:28.355Z,11.40
2023-04-18T23:53:55.518Z,11.40
2023-04-18T23:56:23.142Z,11.40
2023-04-18T23:58:50.141Z,11.40
